Skip to Main Content
SEARCH:
Location Air RH Dwp Precip Type Wind Speed Wind Gust Direction Pavement Temperature Date/Time
Hatem Bridge US 40 E/B 38 92 36 None Calm 4 mph E 38 - 38 2/23/2018 5:03:00 AM
I-270 at I-370 38 93 37 None Calm 5 mph NE 42 - 45 2/23/2018 5:00:00 AM
I-270 at MD-109 40 100 40 None Calm 4 mph NW 41 - 43 2/23/2018 5:00:00 AM
I-495 at American Legion Bridge 40 100 40 None Calm 6 mph E 42 - 44 2/23/2018 5:00:00 AM
I-68 at Savage Mt 33 100 33 Sleet 9 mph 13 mph SE 36 - 36 2/23/2018 5:00:00 AM
I-68 at Sideling Hill 36 100 36 None Calm 7 mph SE 40 - 41 2/23/2018 5:00:00 AM
I-68 at US 219 33 100 33 None 13 mph 19 mph SE 34 - 37 2/23/2018 5:00:00 AM
I-68 at WV Line 38 100 38 None Calm 4 mph SE 40 - 42 2/23/2018 5:00:00 AM
I-695 at I-83 38 92 36 Sleet Calm 6 mph SE 40 - 42 2/23/2018 5:00:00 AM
I-695 on FSK Bridge 39 98 38 None 12 mph 13 mph S - 2/23/2018 5:03:00 AM
I-70 at Fred-Wash Co. 37 100 37 Sleet 4 mph 9 mph SE 38 - 41 2/23/2018 5:00:00 AM
I-70 at I-695 38 96 37 Sleet 6 mph 10 mph E 40 - 43 2/23/2018 5:00:00 AM
I-70 at I-81 39 100 39 Rain Calm 4 mph E - 2/23/2018 5:00:00 AM
I-70 at MD-27 37 100 37 None Calm 8 mph E 39 - 41 2/23/2018 5:00:00 AM
I-70 at MD-32 38 94 37 None Calm 4 mph NE 40 - 43 2/23/2018 5:00:00 AM
I-83 at MD-137 38 100 38 Sleet Calm 7 mph NE 41 - 41 2/23/2018 5:00:00 AM
I-95 at I-695 NE 39 92 37 Rain 5 mph 7 mph E 40 - 42 2/23/2018 5:03:00 AM
I-95 at Patuxent River 39 95 38 None Calm 7 mph E 41 - 43 2/23/2018 5:00:00 AM
I-95 at Tydings Bridge 38 93 36 Sleet 4 mph 9 mph E - 2/23/2018 5:00:00 AM
I-95/495 at I-295 44 82 39 None Calm 6 mph E 45 - 46 2/23/2018 5:00:00 AM
I-97 at MD-100 39 92 36 None 5 mph 10 mph E 42 - 43 2/23/2018 5:00:00 AM
I-97 at MD-32 38 93 36 None 9 mph 14 mph N 42 - 44 2/23/2018 5:00:00 AM
MD 20 at MD 21 38 93 37 None Calm 5 mph E 43 - 43 2/23/2018 5:00:00 AM
MD 231 at Patuxent River 40 96 39 None 7 mph 9 mph NE 41 - 44 2/23/2018 5:00:00 AM
MD 260 at Cox Rd 39 94 38 None Calm 6 mph N 45 - 45 2/23/2018 5:00:00 AM
MD-135 at Salt Dome 32 100 32 Sleet 9 mph 15 mph SE 36 - 36 2/23/2018 5:00:00 AM
MD-140 at MD-97 37 97 36 Sleet 4 mph 6 mph SE 39 - 39 2/23/2018 5:00:00 AM
MD-200 EB at Bonifant Rd 38 95 37 None Calm 7 mph E 42 - 42 2/23/2018 5:03:00 AM
MD-200 WB at Muncaster Mill Rd 38 92 36 None 4 mph 8 mph SE 43 - 44 2/23/2018 5:03:00 AM
MD-213 at Sassafras River 40 99 40 None 4 mph 10 mph NE 43 - 43 2/23/2018 5:00:00 AM
MD-24 at Rock St Park 38 100 38 Sleet Calm Calm N 41 - 41 2/23/2018 5:00:00 AM
MD-30 at PA Line 36 100 36 None Calm 5 mph SE 40 - 40 2/23/2018 5:00:00 AM
MD-33 at Knapps Narrows Drawbridge 39 92 37 None 6 mph 11 mph NE 45 - 45 2/23/2018 5:00:00 AM
MD-344 at MD-224 39 97 38 None Calm 4 mph W 46 - 46 2/23/2018 5:00:00 AM
MD-4 at Patuxent River 41 99 41 None - - No Data Available 42 - 45 2/23/2018 5:00:00 AM
MD-404 at Choptank River 38 91 36 Sleet 5 mph 7 mph NE 40 - 43 2/23/2018 5:00:00 AM
MD-43 at MD-150 39 98 39 Sleet 6 mph 10 mph NE 41 - 42 2/23/2018 5:00:00 AM
MD-51 at Oldtown Salt Dome 39 97 38 Rain Calm 4 mph NE 43 - 43 2/23/2018 5:00:00 AM
MD-64 at MD-418 38 96 37 Sleet Calm 4 mph NW 41 - 42 2/23/2018 5:00:00 AM
US 301 at MD 305 38 91 36 None 5 mph 9 mph NE 42 - 43 2/23/2018 5:00:00 AM
US-1 at Baltimore / Harford Co. Line 38 92 36 None Calm 6 mph SW 42 - 43 2/23/2018 5:00:00 AM
US-1 at Conowingo Dam 39 99 39 Sleet Calm Calm E 44 - 44 2/23/2018 5:00:00 AM
US-13 at US-113 41 94 40 None 7 mph 14 mph NE 47 - 47 2/23/2018 5:00:00 AM
US-13 at US-50 41 90 38 None 5 mph 15 mph NE - 2/23/2018 5:00:00 AM
US-15 at MD-140 37 98 37 Sleet Calm 6 mph E 39 - 42 2/23/2018 5:00:00 AM
US-301 at MD-5 39 98 39 None 4 mph 7 mph N 43 - 44 2/23/2018 5:00:00 AM
US-301 at Potomac 45 87 41 None Calm 4 mph NE 41 - 44 2/23/2018 5:00:00 AM
US-301 on HWN Bridge 39 96 38 None 6 mph 7 mph NE 42 - 42 2/23/2018 5:03:00 AM
US-340 at MD-180 38 96 37 None 6 mph 10 mph SE 41 - 42 2/23/2018 5:00:00 AM
US-50 at Choptank 40 100 40 None 6 mph 17 mph E 43 - 44 2/23/2018 5:00:00 AM
US-50 at I-95 41 94 39 None Calm 4 mph NE 42 - 44 2/23/2018 5:00:00 AM
US-50 at MD-2 38 98 38 None Calm 7 mph NE 42 - 42 2/23/2018 5:00:00 AM
US-50 at MD-331 41 91 39 None 6 mph 11 mph E 42 - 50 2/23/2018 5:00:00 AM
US-50 at OC Drawbridge 41 100 41 None 7 mph 16 mph NE 43 - 43 2/23/2018 5:00:00 AM
US-50 at Table Rock Rd 34 100 34 Snow 11 mph 16 mph SE 37 - 37 2/23/2018 5:00:00 AM
US-50 Kent Narrow Bridge 39 99 39 None 5 mph 8 mph NE 41 - 43 2/23/2018 5:00:00 AM
WPL Pier 31 37 96 36 Snow 11 mph 12 mph NE 41 - 41 2/23/2018 5:03:00 AM
Location Air RH Dwp Precip Type Wind Speed Wind Gust Direction Pavement Temperature Date/Time